sensor_id;sensor_type;location;lat;lon;timestamp;P1;durP1;ratioP1;P2;durP2;ratioP2
54823;SDS011;40724;53.196;5.980;2023-08-07T00:01:19;2.72;;;1.60;;
54823;SDS011;40724;53.196;5.980;2023-08-07T00:03:45;2.42;;;1.40;;
54823;SDS011;40724;53.196;5.980;2023-08-07T00:06:12;3.10;;;1.63;;
54823;SDS011;40724;53.196;5.980;2023-08-07T00:08:38;2.92;;;1.67;;
54823;SDS011;40724;53.196;5.980;2023-08-07T00:11:08;3.53;;;1.42;;
54823;SDS011;40724;53.196;5.980;2023-08-07T00:13:34;4.50;;;1.85;;
54823;SDS011;40724;53.196;5.980;2023-08-07T00:16:00;5.70;;;2.45;;
54823;SDS011;40724;53.196;5.980;2023-08-07T00:18:28;9.40;;;2.95;;
54823;SDS011;40724;53.196;5.980;2023-08-07T00:20:54;5.60;;;2.47;;
54823;SDS011;40724;53.196;5.980;2023-08-07T00:23:21;5.63;;;2.00;;
54823;SDS011;40724;53.196;5.980;2023-08-07T00:25:47;9.05;;;2.67;;
54823;SDS011;40724;53.196;5.980;2023-08-07T00:28:13;10.43;;;3.72;;
54823;SDS011;40724;53.196;5.980;2023-08-07T00:30:39;8.38;;;3.17;;
54823;SDS011;40724;53.196;5.980;2023-08-07T00:33:06;10.93;;;3.33;;
54823;SDS011;40724;53.196;5.980;2023-08-07T00:35:32;8.30;;;3.42;;
54823;SDS011;40724;53.196;5.980;2023-08-07T00:37:58;9.07;;;3.50;;
54823;SDS011;40724;53.196;5.980;2023-08-07T00:40:25;7.75;;;3.08;;
54823;SDS011;40724;53.196;5.980;2023-08-07T00:42:51;15.48;;;3.47;;
54823;SDS011;40724;53.196;5.980;2023-08-07T00:45:20;19.58;;;3.40;;
54823;SDS011;40724;53.196;5.980;2023-08-07T00:47:46;7.40;;;2.83;;
54823;SDS011;40724;53.196;5.980;2023-08-07T00:50:13;6.47;;;3.03;;
54823;SDS011;40724;53.196;5.980;2023-08-07T00:52:39;14.43;;;2.92;;
54823;SDS011;40724;53.196;5.980;2023-08-07T00:55:07;9.20;;;3.40;;
54823;SDS011;40724;53.196;5.980;2023-08-07T00:57:33;7.00;;;2.65;;
54823;SDS011;40724;53.196;5.980;2023-08-07T00:59:59;12.20;;;3.15;;
54823;SDS011;40724;53.196;5.980;2023-08-07T01:02:25;7.15;;;2.92;;
54823;SDS011;40724;53.196;5.980;2023-08-07T01:04:51;6.38;;;2.17;;
54823;SDS011;40724;53.196;5.980;2023-08-07T01:07:18;8.95;;;3.28;;
54823;SDS011;40724;53.196;5.980;2023-08-07T01:09:44;5.97;;;2.95;;
54823;SDS011;40724;53.196;5.980;2023-08-07T01:12:14;7.53;;;3.00;;
54823;SDS011;40724;53.196;5.980;2023-08-07T01:14:46;12.32;;;3.20;;
54823;SDS011;40724;53.196;5.980;2023-08-07T01:17:16;6.30;;;2.50;;
54823;SDS011;40724;53.196;5.980;2023-08-07T01:19:42;14.27;;;3.45;;
54823;SDS011;40724;53.196;5.980;2023-08-07T01:22:09;9.38;;;3.25;;
54823;SDS011;40724;53.196;5.980;2023-08-07T01:24:36;7.07;;;2.75;;
54823;SDS011;40724;53.196;5.980;2023-08-07T01:27:06;8.35;;;3.10;;
54823;SDS011;40724;53.196;5.980;2023-08-07T01:29:39;10.30;;;2.90;;
54823;SDS011;40724;53.196;5.980;2023-08-07T01:32:06;11.20;;;3.97;;
54823;SDS011;40724;53.196;5.980;2023-08-07T01:34:33;9.13;;;2.80;;
54823;SDS011;40724;53.196;5.980;2023-08-07T01:37:00;9.77;;;3.42;;
54823;SDS011;40724;53.196;5.980;2023-08-07T01:39:27;9.25;;;3.13;;
54823;SDS011;40724;53.196;5.980;2023-08-07T01:41:54;9.00;;;2.50;;
54823;SDS011;40724;53.196;5.980;2023-08-07T01:44:20;6.60;;;2.47;;
54823;SDS011;40724;53.196;5.980;2023-08-07T01:46:47;7.82;;;3.10;;
54823;SDS011;40724;53.196;5.980;2023-08-07T01:49:13;11.85;;;3.78;;
54823;SDS011;40724;53.196;5.980;2023-08-07T01:51:39;13.52;;;4.18;;
54823;SDS011;40724;53.196;5.980;2023-08-07T01:54:05;7.53;;;3.10;;
54823;SDS011;40724;53.196;5.980;2023-08-07T01:56:30;10.80;;;2.80;;
54823;SDS011;40724;53.196;5.980;2023-08-07T01:58:56;11.13;;;3.72;;
54823;SDS011;40724;53.196;5.980;2023-08-07T02:01:22;10.82;;;3.33;;
54823;SDS011;40724;53.196;5.980;2023-08-07T02:03:47;5.07;;;3.10;;
54823;SDS011;40724;53.196;5.980;2023-08-07T02:06:13;8.25;;;3.38;;
54823;SDS011;40724;53.196;5.980;2023-08-07T02:08:39;9.20;;;3.28;;
54823;SDS011;40724;53.196;5.980;2023-08-07T02:11:05;9.52;;;3.63;;
54823;SDS011;40724;53.196;5.980;2023-08-07T02:13:31;6.93;;;3.05;;
54823;SDS011;40724;53.196;5.980;2023-08-07T02:15:57;8.38;;;3.13;;
54823;SDS011;40724;53.196;5.980;2023-08-07T02:18:23;10.27;;;3.42;;
54823;SDS011;40724;53.196;5.980;2023-08-07T02:20:49;9.63;;;3.00;;
54823;SDS011;40724;53.196;5.980;2023-08-07T02:23:15;8.45;;;3.35;;
54823;SDS011;40724;53.196;5.980;2023-08-07T02:25:41;9.05;;;2.97;;
54823;SDS011;40724;53.196;5.980;2023-08-07T02:28:07;8.30;;;2.80;;
54823;SDS011;40724;53.196;5.980;2023-08-07T02:30:33;9.35;;;3.17;;
54823;SDS011;40724;53.196;5.980;2023-08-07T02:33:00;8.88;;;3.17;;
54823;SDS011;40724;53.196;5.980;2023-08-07T02:35:26;6.63;;;3.05;;
54823;SDS011;40724;53.196;5.980;2023-08-07T02:37:52;7.38;;;3.10;;
54823;SDS011;40724;53.196;5.980;2023-08-07T02:40:18;12.13;;;3.42;;
54823;SDS011;40724;53.196;5.980;2023-08-07T02:42:44;6.80;;;3.38;;
54823;SDS011;40724;53.196;5.980;2023-08-07T02:45:10;6.35;;;2.90;;
54823;SDS011;40724;53.196;5.980;2023-08-07T02:47:36;7.47;;;2.85;;
54823;SDS011;40724;53.196;5.980;2023-08-07T02:50:03;6.07;;;2.60;;
54823;SDS011;40724;53.196;5.980;2023-08-07T02:52:29;4.82;;;2.42;;
54823;SDS011;40724;53.196;5.980;2023-08-07T02:54:55;5.55;;;2.50;;
54823;SDS011;40724;53.196;5.980;2023-08-07T02:57:21;7.00;;;3.00;;
54823;SDS011;40724;53.196;5.980;2023-08-07T02:59:47;7.60;;;2.78;;
54823;SDS011;40724;53.196;5.980;2023-08-07T03:02:14;8.13;;;2.97;;
54823;SDS011;40724;53.196;5.980;2023-08-07T03:04:40;7.28;;;3.35;;
54823;SDS011;40724;53.196;5.980;2023-08-07T03:07:06;7.32;;;2.92;;
54823;SDS011;40724;53.196;5.980;2023-08-07T03:09:32;9.68;;;3.53;;
54823;SDS011;40724;53.196;5.980;2023-08-07T03:11:58;3.78;;;2.60;;
54823;SDS011;40724;53.196;5.980;2023-08-07T03:14:28;7.05;;;2.90;;
54823;SDS011;40724;53.196;5.980;2023-08-07T03:16:55;6.32;;;3.65;;
54823;SDS011;40724;53.196;5.980;2023-08-07T03:19:21;10.63;;;3.80;;
54823;SDS011;40724;53.196;5.980;2023-08-07T03:21:47;11.38;;;3.50;;
54823;SDS011;40724;53.196;5.980;2023-08-07T03:24:13;9.43;;;3.92;;
54823;SDS011;40724;53.196;5.980;2023-08-07T03:26:39;8.10;;;3.70;;
54823;SDS011;40724;53.196;5.980;2023-08-07T03:29:06;10.70;;;3.33;;
54823;SDS011;40724;53.196;5.980;2023-08-07T03:31:32;12.82;;;4.03;;
54823;SDS011;40724;53.196;5.980;2023-08-07T03:33:58;10.80;;;4.60;;
54823;SDS011;40724;53.196;5.980;2023-08-07T03:36:24;6.85;;;3.40;;
54823;SDS011;40724;53.196;5.980;2023-08-07T03:38:50;12.23;;;4.22;;
54823;SDS011;40724;53.196;5.980;2023-08-07T03:41:16;11.48;;;3.60;;
54823;SDS011;40724;53.196;5.980;2023-08-07T03:43:42;7.90;;;3.22;;
54823;SDS011;40724;53.196;5.980;2023-08-07T03:46:08;6.40;;;3.08;;
54823;SDS011;40724;53.196;5.980;2023-08-07T03:48:35;12.48;;;4.15;;
54823;SDS011;40724;53.196;5.980;2023-08-07T03:51:01;12.95;;;3.55;;
54823;SDS011;40724;53.196;5.980;2023-08-07T03:53:28;9.32;;;3.75;;
54823;SDS011;40724;53.196;5.980;2023-08-07T03:55:54;18.08;;;5.05;;
54823;SDS011;40724;53.196;5.980;2023-08-07T03:58:20;10.55;;;4.30;;
54823;SDS011;40724;53.196;5.980;2023-08-07T04:00:47;12.85;;;3.92;;
54823;SDS011;40724;53.196;5.980;2023-08-07T04:03:13;8.88;;;3.55;;
54823;SDS011;40724;53.196;5.980;2023-08-07T04:05:39;8.18;;;3.10;;
54823;SDS011;40724;53.196;5.980;2023-08-07T04:08:05;15.60;;;3.92;;
54823;SDS011;40724;53.196;5.980;2023-08-07T04:10:31;10.63;;;3.72;;
54823;SDS011;40724;53.196;5.980;2023-08-07T04:12:57;8.98;;;3.97;;
54823;SDS011;40724;53.196;5.980;2023-08-07T04:15:23;9.10;;;4.25;;
54823;SDS011;40724;53.196;5.980;2023-08-07T04:17:50;9.18;;;3.10;;
54823;SDS011;40724;53.196;5.980;2023-08-07T04:20:16;12.23;;;3.78;;
54823;SDS011;40724;53.196;5.980;2023-08-07T04:22:42;12.18;;;3.40;;
54823;SDS011;40724;53.196;5.980;2023-08-07T04:25:10;7.40;;;3.15;;
54823;SDS011;40724;53.196;5.980;2023-08-07T04:27:36;14.57;;;4.20;;
54823;SDS011;40724;53.196;5.980;2023-08-07T04:30:03;14.18;;;3.72;;
54823;SDS011;40724;53.196;5.980;2023-08-07T04:32:30;10.68;;;3.55;;
54823;SDS011;40724;53.196;5.980;2023-08-07T04:34:56;9.98;;;3.83;;
54823;SDS011;40724;53.196;5.980;2023-08-07T04:37:22;14.25;;;4.60;;
54823;SDS011;40724;53.196;5.980;2023-08-07T04:39:48;11.77;;;6.22;;
54823;SDS011;40724;53.196;5.980;2023-08-07T04:42:14;9.82;;;4.65;;
54823;SDS011;40724;53.196;5.980;2023-08-07T04:44:40;13.27;;;5.32;;
54823;SDS011;40724;53.196;5.980;2023-08-07T04:47:06;12.20;;;4.03;;
54823;SDS011;40724;53.196;5.980;2023-08-07T04:49:32;11.27;;;4.25;;
54823;SDS011;40724;53.196;5.980;2023-08-07T04:51:58;10.35;;;3.60;;
54823;SDS011;40724;53.196;5.980;2023-08-07T04:54:25;8.30;;;3.75;;
54823;SDS011;40724;53.196;5.980;2023-08-07T04:56:51;11.20;;;4.07;;
54823;SDS011;40724;53.196;5.980;2023-08-07T04:59:17;9.82;;;4.28;;
54823;SDS011;40724;53.196;5.980;2023-08-07T05:01:44;17.38;;;4.55;;
54823;SDS011;40724;53.196;5.980;2023-08-07T05:04:10;15.63;;;4.45;;
54823;SDS011;40724;53.196;5.980;2023-08-07T05:06:36;11.48;;;4.57;;
54823;SDS011;40724;53.196;5.980;2023-08-07T05:09:02;8.20;;;4.38;;
54823;SDS011;40724;53.196;5.980;2023-08-07T05:11:29;11.07;;;4.10;;
54823;SDS011;40724;53.196;5.980;2023-08-07T05:13:55;15.50;;;5.15;;
54823;SDS011;40724;53.196;5.980;2023-08-07T05:16:21;11.85;;;3.80;;
54823;SDS011;40724;53.196;5.980;2023-08-07T05:18:48;9.70;;;5.50;;
54823;SDS011;40724;53.196;5.980;2023-08-07T05:21:15;12.65;;;5.03;;
54823;SDS011;40724;53.196;5.980;2023-08-07T05:23:41;8.10;;;4.10;;
54823;SDS011;40724;53.196;5.980;2023-08-07T05:26:07;12.27;;;3.83;;
54823;SDS011;40724;53.196;5.980;2023-08-07T05:28:33;15.68;;;5.68;;
54823;SDS011;40724;53.196;5.980;2023-08-07T05:30:59;9.25;;;3.53;;
54823;SDS011;40724;53.196;5.980;2023-08-07T05:33:26;13.30;;;4.00;;
54823;SDS011;40724;53.196;5.980;2023-08-07T05:35:52;8.73;;;4.50;;
54823;SDS011;40724;53.196;5.980;2023-08-07T05:38:18;13.15;;;4.43;;
54823;SDS011;40724;53.196;5.980;2023-08-07T05:40:44;10.32;;;4.03;;
54823;SDS011;40724;53.196;5.980;2023-08-07T05:43:10;9.90;;;3.92;;
54823;SDS011;40724;53.196;5.980;2023-08-07T05:45:37;6.78;;;3.65;;
54823;SDS011;40724;53.196;5.980;2023-08-07T05:48:04;13.18;;;5.50;;
54823;SDS011;40724;53.196;5.980;2023-08-07T05:50:30;11.43;;;4.18;;
54823;SDS011;40724;53.196;5.980;2023-08-07T05:52:56;10.02;;;3.65;;
54823;SDS011;40724;53.196;5.980;2023-08-07T05:55:22;10.13;;;4.30;;
54823;SDS011;40724;53.196;5.980;2023-08-07T05:57:48;10.52;;;3.40;;
54823;SDS011;40724;53.196;5.980;2023-08-07T06:00:15;11.15;;;4.45;;
54823;SDS011;40724;53.196;5.980;2023-08-07T06:02:44;9.52;;;3.97;;
54823;SDS011;40724;53.196;5.980;2023-08-07T06:05:10;12.23;;;3.80;;
54823;SDS011;40724;53.196;5.980;2023-08-07T06:07:39;9.00;;;3.90;;
54823;SDS011;40724;53.196;5.980;2023-08-07T06:10:11;13.37;;;4.97;;
54823;SDS011;40724;53.196;5.980;2023-08-07T06:12:37;12.63;;;3.28;;
54823;SDS011;40724;53.196;5.980;2023-08-07T06:15:04;9.10;;;3.63;;
54823;SDS011;40724;53.196;5.980;2023-08-07T06:17:30;11.10;;;2.90;;
54823;SDS011;40724;53.196;5.980;2023-08-07T06:19:56;7.22;;;3.22;;
54823;SDS011;40724;53.196;5.980;2023-08-07T06:22:22;7.47;;;2.50;;
54823;SDS011;40724;53.196;5.980;2023-08-07T06:24:48;5.57;;;2.33;;
54823;SDS011;40724;53.196;5.980;2023-08-07T06:27:15;5.07;;;2.10;;
54823;SDS011;40724;53.196;5.980;2023-08-07T06:29:41;5.85;;;2.50;;
54823;SDS011;40724;53.196;5.980;2023-08-07T06:32:07;9.07;;;3.03;;
54823;SDS011;40724;53.196;5.980;2023-08-07T06:34:35;7.93;;;2.30;;
54823;SDS011;40724;53.196;5.980;2023-08-07T06:37:08;8.20;;;3.08;;
54823;SDS011;40724;53.196;5.980;2023-08-07T06:39:35;6.88;;;2.75;;
54823;SDS011;40724;53.196;5.980;2023-08-07T06:42:01;12.30;;;2.90;;
54823;SDS011;40724;53.196;5.980;2023-08-07T06:44:28;6.53;;;2.58;;
54823;SDS011;40724;53.196;5.980;2023-08-07T06:46:54;8.48;;;2.40;;
54823;SDS011;40724;53.196;5.980;2023-08-07T06:49:20;11.18;;;3.00;;
54823;SDS011;40724;53.196;5.980;2023-08-07T06:51:46;6.32;;;2.50;;
54823;SDS011;40724;53.196;5.980;2023-08-07T06:54:12;12.80;;;2.97;;
54823;SDS011;40724;53.196;5.980;2023-08-07T06:56:38;8.40;;;3.03;;
54823;SDS011;40724;53.196;5.980;2023-08-07T06:59:07;6.55;;;3.25;;
54823;SDS011;40724;53.196;5.980;2023-08-07T07:01:33;10.75;;;3.85;;
54823;SDS011;40724;53.196;5.980;2023-08-07T07:03:59;8.15;;;3.75;;
54823;SDS011;40724;53.196;5.980;2023-08-07T07:06:25;13.68;;;3.90;;
54823;SDS011;40724;53.196;5.980;2023-08-07T07:08:52;8.18;;;3.47;;
54823;SDS011;40724;53.196;5.980;2023-08-07T07:11:19;9.55;;;3.85;;
54823;SDS011;40724;53.196;5.980;2023-08-07T07:13:47;10.40;;;4.03;;
54823;SDS011;40724;53.196;5.980;2023-08-07T07:16:14;9.60;;;4.05;;
54823;SDS011;40724;53.196;5.980;2023-08-07T07:18:40;7.45;;;4.45;;
54823;SDS011;40724;53.196;5.980;2023-08-07T07:21:06;11.00;;;4.00;;
54823;SDS011;40724;53.196;5.980;2023-08-07T07:23:33;12.18;;;4.35;;
54823;SDS011;40724;53.196;5.980;2023-08-07T07:25:59;7.55;;;3.17;;
54823;SDS011;40724;53.196;5.980;2023-08-07T07:28:25;12.85;;;4.18;;
54823;SDS011;40724;53.196;5.980;2023-08-07T07:30:51;13.35;;;3.65;;
54823;SDS011;40724;53.196;5.980;2023-08-07T07:33:17;6.35;;;3.10;;
54823;SDS011;40724;53.196;5.980;2023-08-07T07:35:43;15.02;;;3.83;;
54823;SDS011;40724;53.196;5.980;2023-08-07T07:38:10;5.20;;;3.45;;
54823;SDS011;40724;53.196;5.980;2023-08-07T07:40:36;7.07;;;3.55;;
54823;SDS011;40724;53.196;5.980;2023-08-07T07:43:03;8.65;;;3.95;;
54823;SDS011;40724;53.196;5.980;2023-08-07T07:45:29;13.32;;;3.38;;
54823;SDS011;40724;53.196;5.980;2023-08-07T07:47:55;8.77;;;4.72;;
54823;SDS011;40724;53.196;5.980;2023-08-07T07:50:21;7.45;;;3.75;;
54823;SDS011;40724;53.196;5.980;2023-08-07T07:52:47;8.70;;;3.72;;
54823;SDS011;40724;53.196;5.980;2023-08-07T07:55:14;13.20;;;4.90;;
54823;SDS011;40724;53.196;5.980;2023-08-07T07:57:40;14.35;;;4.25;;
54823;SDS011;40724;53.196;5.980;2023-08-07T08:00:06;10.48;;;4.38;;
54823;SDS011;40724;53.196;5.980;2023-08-07T08:02:39;13.30;;;3.97;;
54823;SDS011;40724;53.196;5.980;2023-08-07T08:05:06;9.85;;;4.22;;
54823;SDS011;40724;53.196;5.980;2023-08-07T08:07:33;15.85;;;4.88;;
54823;SDS011;40724;53.196;5.980;2023-08-07T08:09:59;8.88;;;4.07;;
54823;SDS011;40724;53.196;5.980;2023-08-07T08:12:26;6.45;;;3.47;;
54823;SDS011;40724;53.196;5.980;2023-08-07T08:14:52;7.38;;;2.90;;
54823;SDS011;40724;53.196;5.980;2023-08-07T08:17:18;7.65;;;3.95;;
54823;SDS011;40724;53.196;5.980;2023-08-07T08:19:44;10.75;;;3.95;;
54823;SDS011;40724;53.196;5.980;2023-08-07T08:22:10;9.05;;;2.65;;
54823;SDS011;40724;53.196;5.980;2023-08-07T08:24:36;6.32;;;2.58;;
54823;SDS011;40724;53.196;5.980;2023-08-07T08:27:03;9.25;;;3.30;;
54823;SDS011;40724;53.196;5.980;2023-08-07T08:29:29;7.63;;;2.83;;
54823;SDS011;40724;53.196;5.980;2023-08-07T08:31:55;9.23;;;3.10;;
54823;SDS011;40724;53.196;5.980;2023-08-07T08:34:21;13.13;;;3.45;;
54823;SDS011;40724;53.196;5.980;2023-08-07T08:36:48;7.00;;;2.72;;
54823;SDS011;40724;53.196;5.980;2023-08-07T08:39:14;9.10;;;2.92;;
54823;SDS011;40724;53.196;5.980;2023-08-07T08:41:40;8.07;;;3.78;;
54823;SDS011;40724;53.196;5.980;2023-08-07T08:44:08;9.82;;;3.97;;
54823;SDS011;40724;53.196;5.980;2023-08-07T08:46:35;5.90;;;2.47;;
54823;SDS011;40724;53.196;5.980;2023-08-07T08:49:01;7.55;;;3.33;;
54823;SDS011;40724;53.196;5.980;2023-08-07T08:51:29;10.85;;;3.38;;
54823;SDS011;40724;53.196;5.980;2023-08-07T08:53:56;7.35;;;3.25;;
54823;SDS011;40724;53.196;5.980;2023-08-07T08:56:22;6.20;;;2.80;;
54823;SDS011;40724;53.196;5.980;2023-08-07T08:58:49;8.73;;;3.13;;
54823;SDS011;40724;53.196;5.980;2023-08-07T09:01:17;7.82;;;2.88;;
54823;SDS011;40724;53.196;5.980;2023-08-07T09:03:44;8.70;;;3.13;;
54823;SDS011;40724;53.196;5.980;2023-08-07T09:06:11;6.63;;;3.03;;
54823;SDS011;40724;53.196;5.980;2023-08-07T09:08:42;10.85;;;3.65;;
54823;SDS011;40724;53.196;5.980;2023-08-07T09:11:08;8.85;;;3.53;;
54823;SDS011;40724;53.196;5.980;2023-08-07T09:13:39;6.32;;;3.17;;
54823;SDS011;40724;53.196;5.980;2023-08-07T09:16:07;7.43;;;3.30;;
54823;SDS011;40724;53.196;5.980;2023-08-07T09:18:35;7.40;;;3.20;;
54823;SDS011;40724;53.196;5.980;2023-08-07T09:21:01;10.48;;;3.40;;
54823;SDS011;40724;53.196;5.980;2023-08-07T09:23:28;11.20;;;3.45;;
54823;SDS011;40724;53.196;5.980;2023-08-07T09:26:00;9.20;;;3.75;;
54823;SDS011;40724;53.196;5.980;2023-08-07T09:28:28;12.25;;;4.40;;
54823;SDS011;40724;53.196;5.980;2023-08-07T09:30:55;10.63;;;3.60;;
54823;SDS011;40724;53.196;5.980;2023-08-07T09:33:27;10.88;;;3.35;;
54823;SDS011;40724;53.196;5.980;2023-08-07T09:38:22;8.68;;;3.05;;
54823;SDS011;40724;53.196;5.980;2023-08-07T09:40:48;6.72;;;3.13;;
54823;SDS011;40724;53.196;5.980;2023-08-07T09:43:22;9.20;;;3.00;;
54823;SDS011;40724;53.196;5.980;2023-08-07T09:48:23;5.68;;;2.30;;
54823;SDS011;40724;53.196;5.980;2023-08-07T09:50:50;5.80;;;2.70;;
54823;SDS011;40724;53.196;5.980;2023-08-07T09:53:17;8.70;;;2.97;;
54823;SDS011;40724;53.196;5.980;2023-08-07T09:55:43;5.32;;;2.65;;
54823;SDS011;40724;53.196;5.980;2023-08-07T09:58:09;6.95;;;2.65;;
54823;SDS011;40724;53.196;5.980;2023-08-07T10:00:38;12.98;;;3.50;;
54823;SDS011;40724;53.196;5.980;2023-08-07T10:03:09;14.18;;;4.15;;
54823;SDS011;40724;53.196;5.980;2023-08-07T10:05:35;11.43;;;3.63;;
54823;SDS011;40724;53.196;5.980;2023-08-07T10:08:01;7.47;;;2.83;;
54823;SDS011;40724;53.196;5.980;2023-08-07T10:10:28;5.28;;;3.10;;
54823;SDS011;40724;53.196;5.980;2023-08-07T10:12:54;9.10;;;2.35;;
54823;SDS011;40724;53.196;5.980;2023-08-07T10:15:20;7.57;;;2.92;;
54823;SDS011;40724;53.196;5.980;2023-08-07T10:17:47;9.05;;;3.25;;
54823;SDS011;40724;53.196;5.980;2023-08-07T10:20:13;7.85;;;2.90;;
54823;SDS011;40724;53.196;5.980;2023-08-07T10:22:39;6.10;;;2.42;;
54823;SDS011;40724;53.196;5.980;2023-08-07T10:25:07;7.28;;;3.15;;
54823;SDS011;40724;53.196;5.980;2023-08-07T10:27:34;5.72;;;2.15;;
54823;SDS011;40724;53.196;5.980;2023-08-07T10:30:02;8.48;;;2.92;;
54823;SDS011;40724;53.196;5.980;2023-08-07T10:32:30;11.02;;;2.90;;
54823;SDS011;40724;53.196;5.980;2023-08-07T10:34:58;7.30;;;2.70;;
54823;SDS011;40724;53.196;5.980;2023-08-07T10:40:02;7.93;;;2.45;;
54823;SDS011;40724;53.196;5.980;2023-08-07T10:42:32;3.67;;;2.28;;
54823;SDS011;40724;53.196;5.980;2023-08-07T10:45:00;4.80;;;2.25;;
54823;SDS011;40724;53.196;5.980;2023-08-07T10:47:33;7.13;;;2.63;;
54823;SDS011;40724;53.196;5.980;2023-08-07T10:52:25;6.90;;;2.40;;
54823;SDS011;40724;53.196;5.980;2023-08-07T10:54:53;3.97;;;1.83;;
54823;SDS011;40724;53.196;5.980;2023-08-07T10:57:20;3.65;;;2.10;;
54823;SDS011;40724;53.196;5.980;2023-08-07T10:59:55;4.85;;;2.65;;
54823;SDS011;40724;53.196;5.980;2023-08-07T11:02:30;7.37;;;3.10;;
54823;SDS011;40724;53.196;5.980;2023-08-07T11:04:57;7.60;;;2.40;;
54823;SDS011;40724;53.196;5.980;2023-08-07T11:07:27;5.25;;;1.90;;
54823;SDS011;40724;53.196;5.980;2023-08-07T11:09:54;4.38;;;2.38;;
54823;SDS011;40724;53.196;5.980;2023-08-07T11:12:20;7.28;;;2.70;;
54823;SDS011;40724;53.196;5.980;2023-08-07T11:14:46;8.52;;;2.15;;
54823;SDS011;40724;53.196;5.980;2023-08-07T11:17:13;4.40;;;2.85;;
54823;SDS011;40724;53.196;5.980;2023-08-07T11:19:39;5.43;;;2.67;;
54823;SDS011;40724;53.196;5.980;2023-08-07T11:22:05;5.97;;;3.10;;
54823;SDS011;40724;53.196;5.980;2023-08-07T11:24:31;7.63;;;3.00;;
54823;SDS011;40724;53.196;5.980;2023-08-07T11:26:57;4.18;;;2.70;;
54823;SDS011;40724;53.196;5.980;2023-08-07T11:29:23;7.03;;;2.55;;
54823;SDS011;40724;53.196;5.980;2023-08-07T11:31:53;7.03;;;2.70;;
54823;SDS011;40724;53.196;5.980;2023-08-07T11:34:19;5.22;;;2.28;;
54823;SDS011;40724;53.196;5.980;2023-08-07T11:36:46;6.78;;;2.80;;
54823;SDS011;40724;53.196;5.980;2023-08-07T11:39:13;8.65;;;2.47;;
54823;SDS011;40724;53.196;5.980;2023-08-07T11:41:39;6.93;;;3.42;;
54823;SDS011;40724;53.196;5.980;2023-08-07T11:44:08;8.95;;;2.42;;
54823;SDS011;40724;53.196;5.980;2023-08-07T11:46:35;6.50;;;2.50;;
54823;SDS011;40724;53.196;5.980;2023-08-07T11:49:01;5.60;;;2.10;;
54823;SDS011;40724;53.196;5.980;2023-08-07T11:51:29;7.68;;;2.55;;
54823;SDS011;40724;53.196;5.980;2023-08-07T11:53:55;4.38;;;2.35;;
54823;SDS011;40724;53.196;5.980;2023-08-07T11:56:23;7.72;;;2.53;;
54823;SDS011;40724;53.196;5.980;2023-08-07T11:58:50;3.97;;;2.03;;
54823;SDS011;40724;53.196;5.980;2023-08-07T12:01:18;5.43;;;2.70;;
54823;SDS011;40724;53.196;5.980;2023-08-07T12:06:20;3.72;;;2.72;;
54823;SDS011;40724;53.196;5.980;2023-08-07T12:08:48;6.20;;;3.08;;
54823;SDS011;40724;53.196;5.980;2023-08-07T12:11:15;5.40;;;2.58;;
54823;SDS011;40724;53.196;5.980;2023-08-07T12:13:42;4.70;;;2.47;;
54823;SDS011;40724;53.196;5.980;2023-08-07T12:16:10;3.63;;;1.95;;
54823;SDS011;40724;53.196;5.980;2023-08-07T12:18:44;3.75;;;1.70;;
54823;SDS011;40724;53.196;5.980;2023-08-07T12:21:11;5.70;;;1.83;;
54823;SDS011;40724;53.196;5.980;2023-08-07T12:23:39;3.38;;;1.75;;
54823;SDS011;40724;53.196;5.980;2023-08-07T12:26:05;4.78;;;2.00;;
54823;SDS011;40724;53.196;5.980;2023-08-07T12:28:32;4.72;;;2.33;;
54823;SDS011;40724;53.196;5.980;2023-08-07T12:30:58;5.85;;;2.10;;
54823;SDS011;40724;53.196;5.980;2023-08-07T12:33:25;7.05;;;2.65;;
54823;SDS011;40724;53.196;5.980;2023-08-07T12:35:51;6.93;;;2.28;;
54823;SDS011;40724;53.196;5.980;2023-08-07T12:38:18;10.13;;;3.20;;
54823;SDS011;40724;53.196;5.980;2023-08-07T12:40:45;4.60;;;2.28;;
54823;SDS011;40724;53.196;5.980;2023-08-07T12:43:11;7.63;;;2.83;;
54823;SDS011;40724;53.196;5.980;2023-08-07T12:45:37;5.32;;;2.63;;
54823;SDS011;40724;53.196;5.980;2023-08-07T12:48:04;4.35;;;2.42;;
54823;SDS011;40724;53.196;5.980;2023-08-07T12:50:30;9.55;;;3.08;;
54823;SDS011;40724;53.196;5.980;2023-08-07T12:52:56;5.47;;;2.88;;
54823;SDS011;40724;53.196;5.980;2023-08-07T12:55:23;5.63;;;2.47;;
54823;SDS011;40724;53.196;5.980;2023-08-07T12:57:49;5.95;;;2.80;;
54823;SDS011;40724;53.196;5.980;2023-08-07T13:00:17;7.53;;;3.50;;
54823;SDS011;40724;53.196;5.980;2023-08-07T13:02:47;3.83;;;2.17;;
54823;SDS011;40724;53.196;5.980;2023-08-07T13:05:14;7.10;;;2.70;;
54823;SDS011;40724;53.196;5.980;2023-08-07T13:07:42;9.88;;;2.75;;
54823;SDS011;40724;53.196;5.980;2023-08-07T13:10:09;6.90;;;3.00;;
54823;SDS011;40724;53.196;5.980;2023-08-07T13:12:36;7.38;;;2.75;;
54823;SDS011;40724;53.196;5.980;2023-08-07T13:15:03;7.00;;;2.33;;
54823;SDS011;40724;53.196;5.980;2023-08-07T13:17:37;5.60;;;2.55;;
54823;SDS011;40724;53.196;5.980;2023-08-07T13:20:03;9.15;;;2.65;;
54823;SDS011;40724;53.196;5.980;2023-08-07T13:22:36;6.70;;;2.83;;
54823;SDS011;40724;53.196;5.980;2023-08-07T13:25:03;7.60;;;3.00;;
54823;SDS011;40724;53.196;5.980;2023-08-07T13:27:32;6.38;;;2.20;;
54823;SDS011;40724;53.196;5.980;2023-08-07T13:29:59;11.68;;;3.22;;
54823;SDS011;40724;53.196;5.980;2023-08-07T13:32:26;7.82;;;2.35;;
54823;SDS011;40724;53.196;5.980;2023-08-07T13:34:52;7.15;;;3.13;;
54823;SDS011;40724;53.196;5.980;2023-08-07T13:37:18;6.63;;;2.90;;
54823;SDS011;40724;53.196;5.980;2023-08-07T13:39:45;5.95;;;2.70;;
54823;SDS011;40724;53.196;5.980;2023-08-07T13:42:13;4.25;;;2.28;;
54823;SDS011;40724;53.196;5.980;2023-08-07T13:44:39;8.52;;;2.85;;
54823;SDS011;40724;53.196;5.980;2023-08-07T13:47:05;5.18;;;2.17;;
54823;SDS011;40724;53.196;5.980;2023-08-07T13:49:32;3.58;;;2.00;;
54823;SDS011;40724;53.196;5.980;2023-08-07T13:51:58;6.32;;;3.33;;
54823;SDS011;40724;53.196;5.980;2023-08-07T13:54:24;8.38;;;3.30;;
54823;SDS011;40724;53.196;5.980;2023-08-07T13:56:50;4.35;;;2.75;;
54823;SDS011;40724;53.196;5.980;2023-08-07T13:59:16;6.47;;;3.08;;
54823;SDS011;40724;53.196;5.980;2023-08-07T14:01:42;6.97;;;2.78;;
54823;SDS011;40724;53.196;5.980;2023-08-07T14:04:08;9.68;;;3.05;;
54823;SDS011;40724;53.196;5.980;2023-08-07T14:06:35;5.97;;;2.88;;
54823;SDS011;40724;53.196;5.980;2023-08-07T14:09:02;8.45;;;3.42;;
54823;SDS011;40724;53.196;5.980;2023-08-07T14:11:28;10.55;;;2.63;;
54823;SDS011;40724;53.196;5.980;2023-08-07T14:13:59;6.03;;;2.17;;
54823;SDS011;40724;53.196;5.980;2023-08-07T14:16:25;12.88;;;2.85;;
54823;SDS011;40724;53.196;5.980;2023-08-07T14:18:51;10.35;;;3.30;;
54823;SDS011;40724;53.196;5.980;2023-08-07T14:21:17;8.18;;;2.60;;
54823;SDS011;40724;53.196;5.980;2023-08-07T14:23:46;7.05;;;2.50;;
54823;SDS011;40724;53.196;5.980;2023-08-07T14:26:13;8.70;;;2.72;;
54823;SDS011;40724;53.196;5.980;2023-08-07T14:28:39;6.18;;;1.90;;
54823;SDS011;40724;53.196;5.980;2023-08-07T14:31:06;6.32;;;2.83;;
54823;SDS011;40724;53.196;5.980;2023-08-07T14:33:33;4.20;;;2.25;;
54823;SDS011;40724;53.196;5.980;2023-08-07T14:35:59;5.43;;;1.88;;
54823;SDS011;40724;53.196;5.980;2023-08-07T14:38:25;3.90;;;2.25;;
54823;SDS011;40724;53.196;5.980;2023-08-07T14:40:52;4.47;;;1.98;;
54823;SDS011;40724;53.196;5.980;2023-08-07T14:43:18;6.63;;;2.33;;
54823;SDS011;40724;53.196;5.980;2023-08-07T14:45:44;4.85;;;2.20;;
54823;SDS011;40724;53.196;5.980;2023-08-07T14:48:10;5.18;;;1.75;;
54823;SDS011;40724;53.196;5.980;2023-08-07T14:50:36;4.05;;;1.65;;
54823;SDS011;40724;53.196;5.980;2023-08-07T14:53:03;3.13;;;1.60;;